createdAt,value
2018-04-27T00:01:37.432Z,53.56
2018-04-27T00:04:05.817Z,53.89
2018-04-27T00:06:34.182Z,54.04
2018-04-27T00:09:02.542Z,54.49
2018-04-27T00:11:31.299Z,54.34
2018-04-27T00:13:59.650Z,54.06
2018-04-27T00:16:28.054Z,54.66
2018-04-27T00:18:56.430Z,55.57
2018-04-27T00:21:24.808Z,55.90
2018-04-27T00:23:53.214Z,55.79
2018-04-27T00:26:21.578Z,55.92
2018-04-27T00:28:50.002Z,55.48
2018-04-27T00:31:18.927Z,55.15
2018-04-27T00:33:47.273Z,54.89
2018-04-27T00:36:15.631Z,54.80
2018-04-27T00:38:44.390Z,54.82
2018-04-27T00:41:12.773Z,55.20
2018-04-27T00:43:41.139Z,55.11
2018-04-27T00:46:09.541Z,55.25
2018-04-27T00:48:37.911Z,54.96
2018-04-27T00:51:06.288Z,55.01
2018-04-27T00:53:34.630Z,55.17
2018-04-27T00:56:03.011Z,55.80
2018-04-27T00:58:31.365Z,56.35
2018-04-27T01:00:59.735Z,57.08
2018-04-27T01:03:28.112Z,57.54
2018-04-27T01:05:56.860Z,57.75
2018-04-27T01:08:25.217Z,58.00
2018-04-27T01:10:53.607Z,58.60
2018-04-27T01:13:21.990Z,59.76
2018-04-27T01:15:50.367Z,59.09
2018-04-27T01:18:18.757Z,59.14
2018-04-27T01:20:47.106Z,59.49
2018-04-27T01:23:15.481Z,59.77
2018-04-27T01:25:43.919Z,59.88
2018-04-27T01:28:12.289Z,59.91
2018-04-27T01:30:40.651Z,59.98
2018-04-27T01:33:09.027Z,60.29
2018-04-27T01:35:37.378Z,59.80
2018-04-27T01:38:05.731Z,59.24
2018-04-27T01:40:34.121Z,59.71
2018-04-27T01:43:02.507Z,60.21
2018-04-27T01:45:30.873Z,59.65
2018-04-27T01:47:59.270Z,59.36
2018-04-27T01:50:27.632Z,59.50
2018-04-27T01:52:56.005Z,59.81
2018-04-27T01:55:24.434Z,59.67
2018-04-27T01:57:52.799Z,59.19
2018-04-27T02:00:21.167Z,59.64
2018-04-27T02:02:49.571Z,59.79
2018-04-27T02:05:17.939Z,59.95
2018-04-27T02:07:46.302Z,60.23
2018-04-27T02:10:14.697Z,59.94
2018-04-27T02:12:43.089Z,60.03
2018-04-27T02:15:11.455Z,60.24
2018-04-27T02:17:40.448Z,60.67
2018-04-27T02:20:08.806Z,60.41
2018-04-27T02:22:37.198Z,60.31
2018-04-27T02:25:05.574Z,60.93
2018-04-27T02:27:33.981Z,61.35
2018-04-27T02:30:02.334Z,61.04
2018-04-27T02:32:30.722Z,61.37
2018-04-27T02:34:59.113Z,61.31
2018-04-27T02:37:27.473Z,62.07
2018-04-27T02:39:55.943Z,60.73
2018-04-27T02:42:24.328Z,61.22
2018-04-27T02:44:52.736Z,61.38
2018-04-27T02:47:21.155Z,61.44
2018-04-27T02:49:49.526Z,61.06
2018-04-27T02:52:18.275Z,60.81
2018-04-27T02:54:46.664Z,60.61
2018-04-27T02:57:15.032Z,60.11
2018-04-27T02:59:43.402Z,59.94
2018-04-27T03:02:11.788Z,60.34
2018-04-27T03:04:40.142Z,60.34
2018-04-27T03:07:08.551Z,60.80
2018-04-27T03:09:36.926Z,60.35
2018-04-27T03:12:05.282Z,59.98
2018-04-27T03:14:33.653Z,60.80
2018-04-27T03:17:02.946Z,60.55
2018-04-27T03:19:31.310Z,60.34
2018-04-27T03:22:00.106Z,60.45
2018-04-27T03:24:28.490Z,60.47
2018-04-27T03:26:57.852Z,60.10
2018-04-27T03:29:26.214Z,60.70
2018-04-27T03:31:54.690Z,60.74
2018-04-27T03:34:23.202Z,60.79
2018-04-27T03:36:51.970Z,60.53
2018-04-27T03:39:20.449Z,60.46
2018-04-27T03:41:48.956Z,60.56
2018-04-27T03:44:17.713Z,60.09
2018-04-27T03:46:46.102Z,60.15
2018-04-27T03:49:14.455Z,59.88
2018-04-27T03:51:42.889Z,59.76
2018-04-27T03:54:11.658Z,60.02
2018-04-27T03:56:40.031Z,60.16
2018-04-27T03:59:08.571Z,60.24
2018-04-27T04:01:54.714Z,60.31
2018-04-27T04:04:40.907Z,60.48
2018-04-27T04:07:09.380Z,60.28
2018-04-27T04:09:37.769Z,60.01
2018-04-27T04:12:06.134Z,59.62
2018-04-27T04:14:34.524Z,59.67
2018-04-27T04:17:02.896Z,59.70
2018-04-27T04:19:31.255Z,59.13
2018-04-27T04:21:59.639Z,59.41
2018-04-27T04:24:28.023Z,58.66
2018-04-27T04:26:56.388Z,59.55
2018-04-27T04:29:24.766Z,57.71
2018-04-27T04:31:53.127Z,56.00
2018-04-27T04:34:21.530Z,53.00
2018-04-27T04:36:49.906Z,46.56
2018-04-27T04:39:18.267Z,47.00
2018-04-27T04:41:46.666Z,44.81
2018-04-27T04:44:15.162Z,41.51
2018-04-27T04:46:43.518Z,41.86
2018-04-27T04:49:11.883Z,41.15
2018-04-27T04:51:40.268Z,41.72
2018-04-27T04:54:08.616Z,43.63
2018-04-27T04:56:37.362Z,44.98
2018-04-27T04:59:05.780Z,45.76
2018-04-27T05:01:34.548Z,46.31
2018-04-27T05:04:02.966Z,46.71
2018-04-27T05:06:31.445Z,46.57
2018-04-27T05:08:59.807Z,46.29
2018-04-27T05:11:28.559Z,46.26
2018-04-27T05:13:56.933Z,46.29
2018-04-27T05:16:25.293Z,48.03
2018-04-27T05:18:54.446Z,47.28
2018-04-27T05:21:23.235Z,46.79
2018-04-27T05:23:51.980Z,46.10
2018-04-27T05:26:20.346Z,44.84
2018-04-27T05:28:48.758Z,44.35
2018-04-27T05:33:20.981Z,43.34
2018-04-27T05:35:49.345Z,44.24
2018-04-27T05:38:18.186Z,43.15
2018-04-27T05:40:46.592Z,43.27
2018-04-27T05:43:15.046Z,42.16
2018-04-27T05:45:43.428Z,41.21
2018-04-27T05:48:11.802Z,40.21
2018-04-27T05:50:40.179Z,36.55
2018-04-27T05:53:08.537Z,34.82
2018-04-27T05:55:36.905Z,33.10
2018-04-27T05:58:05.323Z,32.67
2018-04-27T06:00:33.737Z,31.20
2018-04-27T06:03:02.537Z,29.78
2018-04-27T06:05:31.313Z,28.71
2018-04-27T06:07:59.689Z,27.85
2018-04-27T06:10:28.137Z,26.56
2018-04-27T06:12:56.520Z,26.01
2018-04-27T06:15:24.874Z,25.50
2018-04-27T06:17:53.256Z,23.84
2018-04-27T06:20:21.686Z,23.44
2018-04-27T06:22:50.041Z,23.73
2018-04-27T06:25:18.407Z,23.54
2018-04-27T06:27:46.794Z,22.72
2018-04-27T06:30:15.174Z,22.92
2018-04-27T06:32:43.554Z,22.38
2018-04-27T06:35:11.935Z,22.81
2018-04-27T06:37:40.336Z,23.71
2018-04-27T06:40:09.243Z,22.96
2018-04-27T06:42:37.618Z,23.22
2018-04-27T06:45:06.482Z,23.16
2018-04-27T06:47:34.833Z,22.31
2018-04-27T06:50:03.210Z,21.55
2018-04-27T06:52:31.601Z,20.15
2018-04-27T06:55:00.057Z,19.76
2018-04-27T06:57:28.440Z,19.01
2018-04-27T06:59:56.801Z,18.82
2018-04-27T07:02:25.742Z,18.06
2018-04-27T07:04:54.218Z,17.38
2018-04-27T07:07:22.592Z,17.31
2018-04-27T07:09:50.969Z,16.83
2018-04-27T07:12:19.445Z,16.49
2018-04-27T07:14:47.821Z,16.22
2018-04-27T07:17:16.224Z,16.55
2018-04-27T07:19:44.592Z,16.25
2018-04-27T07:22:12.979Z,16.41
2018-04-27T07:24:41.334Z,16.05
2018-04-27T07:27:09.716Z,16.56
2018-04-27T07:29:38.113Z,17.03
2018-04-27T07:32:06.480Z,16.10
2018-04-27T07:34:34.869Z,15.39
2018-04-27T07:37:03.223Z,14.19
2018-04-27T07:39:31.575Z,14.03
2018-04-27T07:41:59.944Z,13.88
2018-04-27T07:44:28.693Z,14.53
2018-04-27T07:46:57.048Z,15.68
2018-04-27T07:49:26.035Z,15.51
2018-04-27T07:51:54.395Z,15.72
2018-04-27T07:54:22.759Z,15.85
2018-04-27T07:56:51.602Z,16.24
2018-04-27T07:59:20.006Z,16.64
2018-04-27T08:01:49.029Z,16.17
2018-04-27T08:04:17.875Z,15.36
2018-04-27T08:06:46.213Z,15.30
2018-04-27T08:09:14.573Z,15.02
2018-04-27T08:11:43.337Z,14.13
2018-04-27T08:14:11.691Z,13.95
2018-04-27T08:16:40.049Z,13.01
2018-04-27T08:19:08.458Z,12.12
2018-04-27T08:21:36.838Z,11.74
2018-04-27T08:24:05.219Z,12.53
2018-04-27T08:26:33.595Z,11.99
2018-04-27T08:29:02.882Z,11.83
2018-04-27T08:31:31.279Z,11.54
2018-04-27T08:33:59.733Z,11.96
2018-04-27T08:36:28.092Z,11.62
2018-04-27T08:38:56.447Z,12.58
2018-04-27T08:41:25.222Z,12.90
2018-04-27T08:43:53.586Z,12.64
2018-04-27T08:46:21.935Z,12.96
2018-04-27T08:48:50.309Z,13.29
2018-04-27T08:51:18.665Z,13.42
2018-04-27T08:53:47.045Z,13.23
2018-04-27T08:56:15.435Z,13.66
2018-04-27T08:58:44.649Z,13.01
2018-04-27T09:01:12.993Z,12.70
2018-04-27T09:03:41.378Z,13.22
2018-04-27T09:06:09.894Z,12.49
2018-04-27T09:08:38.254Z,13.02
2018-04-27T09:11:06.628Z,13.57
2018-04-27T09:13:34.984Z,13.18
2018-04-27T09:16:03.739Z,12.56
2018-04-27T09:18:32.106Z,12.28
2018-04-27T09:21:00.454Z,11.61
2018-04-27T09:23:28.800Z,11.39
2018-04-27T09:25:57.566Z,11.04
2018-04-27T09:28:25.909Z,10.44
2018-04-27T09:30:54.262Z,10.47
2018-04-27T09:33:22.639Z,10.23
2018-04-27T09:35:51.058Z,10.23
2018-04-27T09:38:19.405Z,11.06
2018-04-27T09:40:47.782Z,11.82
2018-04-27T09:43:16.139Z,11.86
2018-04-27T09:45:44.890Z,11.48
2018-04-27T09:48:13.257Z,11.73
2018-04-27T09:50:41.688Z,11.88
2018-04-27T09:53:09.980Z,11.43
2018-04-27T09:55:38.370Z,10.98
2018-04-27T09:58:06.922Z,10.96
2018-04-27T10:00:35.668Z,9.81
2018-04-27T10:03:04.048Z,9.79
2018-04-27T10:05:32.402Z,9.24
2018-04-27T10:08:00.807Z,9.60
2018-04-27T10:10:29.274Z,9.72
2018-04-27T10:12:57.637Z,9.92
2018-04-27T10:15:25.987Z,10.18
2018-04-27T10:17:54.833Z,10.16
2018-04-27T10:20:23.315Z,10.18
2018-04-27T10:22:51.682Z,10.20
2018-04-27T10:25:20.053Z,10.39
2018-04-27T10:27:48.446Z,10.91
2018-04-27T10:30:16.828Z,11.05
2018-04-27T10:32:45.281Z,10.53
2018-04-27T10:35:13.626Z,9.91
2018-04-27T10:37:42.379Z,10.34
2018-04-27T10:40:11.308Z,11.00
2018-04-27T10:42:40.146Z,12.26
2018-04-27T10:45:08.534Z,13.69
2018-04-27T10:47:36.922Z,15.47
2018-04-27T10:50:05.284Z,14.90
2018-04-27T10:52:33.639Z,13.51
2018-04-27T10:55:02.045Z,13.19
2018-04-27T10:57:30.399Z,13.72
2018-04-27T10:59:58.746Z,14.83
2018-04-27T11:02:27.141Z,15.00
2018-04-27T11:04:55.498Z,14.87
2018-04-27T11:07:24.837Z,15.06
2018-04-27T11:09:53.219Z,15.82
2018-04-27T11:12:21.582Z,17.90
2018-04-27T11:14:49.929Z,19.11
2018-04-27T11:17:18.307Z,19.03
2018-04-27T11:19:46.657Z,19.22
2018-04-27T11:22:15.051Z,19.40
2018-04-27T11:24:43.423Z,18.73
2018-04-27T11:27:11.798Z,18.62
2018-04-27T11:29:40.181Z,18.74
2018-04-27T11:32:08.558Z,18.95
2018-04-27T11:34:36.924Z,19.33
2018-04-27T11:37:05.318Z,19.74
2018-04-27T11:39:33.678Z,20.34
2018-04-27T11:42:02.021Z,20.34
2018-04-27T11:44:30.762Z,20.09
2018-04-27T11:46:59.174Z,19.80
2018-04-27T11:49:28.046Z,19.66
2018-04-27T11:51:56.405Z,19.41
2018-04-27T11:54:25.038Z,19.92
2018-04-27T11:56:54.589Z,20.81
2018-04-27T11:59:22.937Z,21.11
2018-04-27T12:01:51.649Z,20.56
2018-04-27T12:04:20.003Z,19.98
2018-04-27T12:06:48.372Z,19.85
2018-04-27T12:09:17.145Z,19.41
2018-04-27T12:11:45.489Z,19.39
2018-04-27T12:14:13.838Z,18.82
2018-04-27T12:16:42.230Z,18.95
2018-04-27T12:19:10.582Z,19.87
2018-04-27T12:21:38.953Z,20.49
2018-04-27T12:24:07.347Z,20.38
2018-04-27T12:26:35.699Z,20.06
2018-04-27T12:29:04.055Z,20.43
2018-04-27T12:31:32.558Z,20.56
2018-04-27T12:34:01.337Z,20.16
2018-04-27T12:36:29.690Z,20.60
2018-04-27T12:38:58.124Z,20.51
2018-04-27T12:41:26.435Z,20.59
2018-04-27T12:43:54.821Z,20.94
2018-04-27T12:46:23.234Z,20.37
2018-04-27T12:48:51.997Z,19.77
2018-04-27T12:51:20.382Z,20.07
2018-04-27T12:53:48.866Z,20.25
2018-04-27T12:56:17.228Z,19.72
2018-04-27T12:58:45.589Z,19.80
2018-04-27T13:01:13.964Z,20.26
2018-04-27T13:03:42.319Z,19.97
2018-04-27T13:06:10.667Z,19.91
2018-04-27T13:08:39.042Z,19.45
2018-04-27T13:11:07.389Z,19.57
2018-04-27T13:13:35.746Z,19.33
2018-04-27T13:16:04.131Z,19.09
2018-04-27T13:18:32.476Z,19.02
2018-04-27T13:21:00.888Z,19.15
2018-04-27T13:23:29.272Z,19.17
2018-04-27T13:25:57.613Z,19.55
2018-04-27T13:28:26.451Z,19.32
2018-04-27T13:30:54.842Z,19.58
2018-04-27T13:33:23.201Z,19.35
2018-04-27T13:35:51.554Z,18.71
2018-04-27T13:38:19.934Z,19.44
2018-04-27T13:40:48.343Z,20.04
2018-04-27T13:43:16.696Z,20.38
2018-04-27T13:45:45.120Z,20.38
2018-04-27T13:48:13.625Z,20.59
2018-04-27T13:50:42.416Z,21.48
2018-04-27T13:53:10.787Z,20.51
2018-04-27T13:55:39.155Z,19.69
2018-04-27T13:58:07.668Z,19.84
2018-04-27T14:00:36.501Z,19.49
2018-04-27T14:03:04.845Z,19.31
2018-04-27T14:05:33.266Z,19.30
2018-04-27T14:08:01.993Z,20.06
2018-04-27T14:10:30.858Z,20.27
2018-04-27T14:12:59.218Z,19.75
2018-04-27T14:15:27.586Z,19.84
2018-04-27T14:17:55.975Z,19.78
2018-04-27T14:20:24.331Z,20.26
2018-04-27T14:22:52.694Z,20.72
2018-04-27T14:25:21.410Z,21.81
2018-04-27T14:27:49.774Z,21.94
2018-04-27T14:30:18.137Z,21.56
2018-04-27T14:32:46.498Z,21.40
2018-04-27T14:35:15.246Z,21.42
2018-04-27T14:37:43.723Z,21.14
2018-04-27T14:40:12.130Z,20.93
2018-04-27T14:42:40.469Z,20.99
2018-04-27T14:45:08.868Z,20.84
2018-04-27T14:47:37.243Z,21.96
2018-04-27T14:50:05.600Z,22.22
2018-04-27T14:52:34.075Z,22.48
2018-04-27T14:55:02.369Z,22.82
2018-04-27T14:57:30.854Z,23.19
2018-04-27T14:59:59.250Z,23.42
2018-04-27T15:02:27.607Z,23.93
2018-04-27T15:04:55.983Z,23.94
2018-04-27T15:07:24.371Z,23.52
2018-04-27T15:09:52.764Z,22.90
2018-04-27T15:12:21.121Z,22.68
2018-04-27T15:14:49.615Z,22.71
2018-04-27T15:17:17.972Z,23.09
2018-04-27T15:19:46.333Z,23.37
2018-04-27T15:22:14.722Z,22.76
2018-04-27T15:24:43.137Z,22.15
2018-04-27T15:27:11.498Z,22.35
2018-04-27T15:29:39.872Z,22.48
2018-04-27T15:32:08.250Z,22.04
2018-04-27T15:34:36.643Z,22.14
2018-04-27T15:37:05.040Z,22.01
2018-04-27T15:39:33.397Z,22.26
2018-04-27T15:42:02.460Z,22.25
2018-04-27T15:44:30.846Z,21.90
2018-04-27T15:46:59.188Z,23.06
2018-04-27T15:49:27.953Z,23.47
2018-04-27T15:51:56.344Z,23.36
2018-04-27T15:54:24.755Z,22.61
2018-04-27T15:56:53.186Z,22.71
2018-04-27T15:59:21.554Z,22.94
2018-04-27T16:01:49.948Z,23.92
2018-04-27T16:04:18.314Z,23.51
2018-04-27T16:06:46.692Z,23.07
2018-04-27T16:09:15.159Z,24.04
2018-04-27T16:11:43.442Z,24.07
2018-04-27T16:14:11.825Z,24.30
2018-04-27T16:16:40.215Z,23.90
2018-04-27T16:19:08.591Z,24.37
2018-04-27T16:21:36.993Z,24.65
2018-04-27T16:24:05.371Z,24.82
2018-04-27T16:26:33.732Z,24.63
2018-04-27T16:29:02.206Z,24.94
2018-04-27T16:31:30.692Z,25.08
2018-04-27T16:33:59.070Z,25.06
2018-04-27T16:36:27.451Z,25.05
2018-04-27T16:38:55.805Z,24.95
2018-04-27T16:41:24.158Z,24.82
2018-04-27T16:43:52.583Z,24.22
2018-04-27T16:46:20.980Z,24.86
2018-04-27T16:48:49.424Z,25.26
2018-04-27T16:51:17.802Z,25.48
2018-04-27T16:53:46.174Z,25.87
2018-04-27T16:56:14.575Z,26.02
2018-04-27T16:58:42.966Z,25.55
2018-04-27T17:01:11.321Z,25.40
2018-04-27T17:03:39.778Z,24.92
2018-04-27T17:06:08.207Z,25.17
2018-04-27T17:08:36.567Z,25.54
2018-04-27T17:11:04.926Z,25.33
2018-04-27T17:13:33.327Z,25.88
2018-04-27T17:16:01.683Z,25.38
2018-04-27T17:18:30.091Z,26.47
2018-04-27T17:20:58.500Z,26.62
2018-04-27T17:23:26.899Z,27.13
2018-04-27T17:25:55.327Z,26.60
2018-04-27T17:28:23.685Z,26.41
2018-04-27T17:30:52.078Z,26.49
2018-04-27T17:33:20.442Z,26.31
2018-04-27T17:35:48.830Z,26.19
2018-04-27T17:38:17.213Z,26.04
2018-04-27T17:40:45.570Z,26.64
2018-04-27T17:43:13.959Z,26.86
2018-04-27T17:45:42.386Z,27.08
2018-04-27T17:48:10.785Z,27.24
2018-04-27T17:50:39.589Z,26.92
2018-04-27T17:53:08.423Z,27.43
2018-04-27T17:55:36.787Z,27.12
2018-04-27T17:58:05.232Z,27.39
2018-04-27T18:00:34.009Z,27.48
2018-04-27T18:03:02.838Z,27.45
2018-04-27T18:05:31.238Z,27.58
2018-04-27T18:07:59.713Z,28.32
2018-04-27T18:10:28.085Z,28.13
2018-04-27T18:12:56.460Z,28.21
2018-04-27T18:15:24.913Z,28.44
2018-04-27T18:17:53.276Z,28.70
2018-04-27T18:20:22.290Z,28.72
2018-04-27T18:22:50.700Z,28.57
2018-04-27T18:25:19.140Z,28.70
2018-04-27T18:27:47.640Z,28.72
2018-04-27T18:30:15.952Z,28.89
2018-04-27T18:32:44.413Z,28.78
2018-04-27T18:35:12.789Z,29.01
2018-04-27T18:37:41.180Z,29.38
2018-04-27T18:40:09.593Z,29.53
2018-04-27T18:42:38.041Z,29.82
2018-04-27T18:45:06.362Z,30.20
2018-04-27T18:47:35.125Z,30.08
2018-04-27T18:50:03.515Z,30.43
2018-04-27T18:52:31.882Z,30.75
2018-04-27T18:55:00.243Z,30.96
2018-04-27T18:57:28.627Z,30.92
2018-04-27T18:59:57.018Z,31.85
2018-04-27T19:02:25.403Z,32.02
2018-04-27T19:04:53.788Z,32.75
2018-04-27T19:07:22.935Z,32.43
2018-04-27T19:09:51.436Z,33.32
2018-04-27T19:12:19.826Z,33.70
2018-04-27T19:14:48.182Z,33.64
2018-04-27T19:17:16.589Z,33.19
2018-04-27T19:19:44.953Z,32.63
2018-04-27T19:22:16.589Z,33.35
2018-04-27T19:24:47.851Z,33.50
2018-04-27T19:27:16.222Z,33.46
2018-04-27T19:29:44.568Z,33.61
2018-04-27T19:32:13.338Z,34.48
2018-04-27T19:34:42.099Z,34.69
2018-04-27T19:37:10.475Z,34.22
2018-04-27T19:39:38.841Z,34.12
2018-04-27T19:42:07.191Z,34.43
2018-04-27T19:44:35.714Z,34.45
2018-04-27T19:47:04.098Z,34.92
2018-04-27T19:49:32.467Z,34.66
2018-04-27T19:52:00.822Z,34.79
2018-04-27T19:54:29.608Z,35.17
2018-04-27T19:56:58.890Z,35.79
2018-04-27T19:59:27.670Z,35.71
2018-04-27T20:01:56.517Z,36.40
2018-04-27T20:04:24.929Z,35.89
2018-04-27T20:06:53.795Z,36.57
2018-04-27T20:09:22.179Z,36.95
2018-04-27T20:11:50.629Z,37.01
2018-04-27T20:14:43.699Z,36.80
2018-04-27T20:17:13.028Z,37.40
2018-04-27T20:19:44.862Z,37.74
2018-04-27T20:22:27.126Z,37.73
2018-04-27T20:25:02.620Z,37.65
2018-04-27T20:27:34.243Z,37.94
2018-04-27T20:30:07.090Z,37.68
2018-04-27T20:32:35.957Z,39.38
2018-04-27T20:35:19.159Z,38.77
2018-04-27T20:37:51.415Z,38.77
2018-04-27T20:40:19.787Z,38.61
2018-04-27T20:42:48.203Z,38.79
2018-04-27T20:45:24.133Z,38.87
2018-04-27T20:47:52.497Z,39.82
2018-04-27T20:50:26.611Z,39.60
2018-04-27T20:52:56.862Z,39.40
2018-04-27T20:55:25.217Z,39.87
2018-04-27T20:57:54.622Z,40.06
2018-04-27T21:00:24.610Z,40.71
2018-04-27T21:02:53.463Z,39.96
2018-04-27T21:05:21.845Z,40.24
2018-04-27T21:07:50.262Z,40.85
2018-04-27T21:10:19.020Z,41.56
2018-04-27T21:12:47.395Z,40.93
2018-04-27T21:15:15.779Z,42.13
2018-04-27T21:17:46.177Z,42.22
2018-04-27T21:20:15.901Z,42.09
2018-04-27T21:22:44.300Z,41.63
2018-04-27T21:25:12.673Z,42.10
2018-04-27T21:27:43.959Z,41.64
2018-04-27T21:30:12.888Z,42.12
2018-04-27T21:32:41.176Z,42.13
2018-04-27T21:35:09.566Z,42.42
2018-04-27T21:37:53.598Z,43.37
2018-04-27T21:40:21.974Z,43.92
2018-04-27T21:42:50.333Z,43.49
2018-04-27T21:45:18.721Z,42.74
2018-04-27T21:47:48.741Z,42.27
2018-04-27T21:50:19.703Z,42.45
2018-04-27T21:52:53.612Z,42.82
2018-04-27T21:55:21.985Z,42.06
2018-04-27T22:00:52.251Z,43.26
2018-04-27T22:03:20.699Z,42.55
2018-04-27T22:06:05.706Z,42.80
2018-04-27T22:11:47.318Z,44.19
2018-04-27T22:14:18.533Z,44.15
2018-04-27T22:19:51.156Z,43.39
2018-04-27T22:22:19.513Z,42.91
2018-04-27T22:24:51.243Z,42.63
2018-04-27T22:27:19.594Z,43.00
2018-04-27T22:29:48.773Z,42.55
2018-04-27T22:32:23.042Z,43.54
2018-04-27T22:34:57.464Z,44.10
2018-04-27T22:37:26.250Z,44.11
2018-04-27T22:40:02.338Z,44.78
2018-04-27T22:42:32.206Z,44.46
2018-04-27T22:45:20.680Z,44.66
2018-04-27T22:47:50.500Z,45.19
2018-04-27T22:50:28.761Z,45.07
2018-04-27T22:52:58.440Z,45.10
2018-04-27T22:55:26.900Z,44.99
2018-04-27T22:57:56.899Z,45.06
2018-04-27T23:00:27.742Z,45.58
2018-04-27T23:02:56.097Z,45.84
2018-04-27T23:05:35.663Z,46.13
2018-04-27T23:08:05.450Z,46.38
2018-04-27T23:10:43.200Z,45.29
2018-04-27T23:13:18.201Z,45.15
2018-04-27T23:15:46.585Z,45.96
2018-04-27T23:18:15.858Z,45.18
2018-04-27T23:20:47.393Z,45.57
2018-04-27T23:23:15.760Z,45.85
2018-04-27T23:25:48.847Z,46.65
2018-04-27T23:28:17.279Z,47.40
2018-04-27T23:30:48.445Z,46.74
2018-04-27T23:33:16.803Z,45.86
2018-04-27T23:35:47.602Z,45.98
2018-04-27T23:38:16.363Z,46.39
2018-04-27T23:40:45.626Z,46.64
2018-04-27T23:43:13.998Z,46.10
2018-04-27T23:45:44.339Z,46.17
2018-04-27T23:48:12.797Z,46.14
2018-04-27T23:50:41.170Z,47.29
2018-04-27T23:53:09.518Z,47.18
2018-04-27T23:55:40.971Z,48.45
2018-04-27T23:58:16.366Z,48.02
